Terminal Aerodrome Forecast
Issued by NWS Cleveland, OH

Home | Current Version | Previous Version | Text Only | Print | Product List | Glossary Off
Versions: 1 2 3 4 5 6 7 8 9 10 11 12 13 14 15 16

640
FTUS41 KCLE 191700 RRA
TAFYNG
TAF
KYNG 191746Z 1918/2018 31012KT P6SM BKN040
     FM200700 35010KT P6SM SCT030 BKN040
      TEMPO 2009/2013 BKN030 OVC040=

USA.gov is the U.S. government's official web portal to all federal, state and local government web resources and services.